Terminal Aerodrome Forecast
Issued by NWS

Home | Current Version | Previous Version | Text Only | Print | Product List | Glossary On
Versions: 1 2 3 4 5 6 7 8 9 10 11 12 13 14 15 16 17
000
FTUS45 KABQ 271700
TAFROW
TAF
KROW 271739Z 2718/2818 14012KT P6SM VCSH OVC012
      TEMPO 2718/2722 5SM -SN BKN015
     FM272200 15010KT P6SM VCSH OVC019
     FM280400 13008KT 3SM BR VCSH BKN015 OVC030
     FM281700 17013KT P6SM VCSH SCT015 OVC035=

USA.gov is the U.S. government's official web portal to all federal, state and local government web resources and services.